Latest Weather Observations for PORTABLE QFRM (Anduramba)

IDQ60801

Issued at 10:52 pm EST Thursday 28 January 2021 (issued every 10 minutes, with the page automatically refreshed every 10 minutes)

About weather observations | Map of weather stations | Latest weather observations for QLD | Other Formats
Station Details ID: 250115 Name: PORTABLE QFRM Lat: -27.19 Lon: 152.09 Height: 730.0 m

Portable automatic weather stations (PAWS) are operated by other organisations, such as Fire and Emergency Services, and are included here by agreement. Portable stations may be deployed to a location for a short period and their location may be subject to change without notice. Wind observations from these stations are provided from heights of either three (3) or ten (10) metres above ground level (AGL).

Data from the previous 72 hours. | See also: Recent months for locations in Queensland
Date/Time
EST
Temp
°C
App
Temp
°C
Dew
Point
°C
Rel
Hum
%
Delta-T
°C
Wind Press
QNH
hPa
Press
MSL
hPa
Rain since
9am
mm
Dir  Spd
km/h
Gust
km/h
Spd
kts
Gust
kts
28/10:40pm 18.4 15.7 16.7 90 1.1 E 26 32 14 17 - - 0.0
28/10:30pm 18.5 15.1 16.8 90 1.1 E 30 35 16 19 - - 0.0
28/10:20pm 18.6 14.8 16.7 89 1.2 E 32 33 17 18 - - 0.0
28/10:10pm 18.6 15.6 16.7 89 1.2 E 28 35 15 19 - - 0.0
28/10:00pm 18.7 16.0 16.6 87 1.3 E 26 30 14 16 - - 0.0
28/09:50pm 18.7 15.6 16.5 87 1.4 E 28 30 15 16 - - 0.0
28/09:40pm 18.9 15.3 16.2 84 1.7 E 30 33 16 18 - - 0.0
28/09:30pm 19.0 14.9 16.0 83 1.8 E 32 37 17 20 - - 0.0
28/09:20pm 19.1 15.1 16.2 83 1.8 E 32 41 17 22 - - 0.0
28/09:10pm 19.2 15.0 16.1 82 1.9 E 33 39 18 21 - - 0.0
28/09:00pm 19.3 15.0 16.0 81 2.0 E 33 37 18 20 - - 0.0
28/08:50pm 19.3 15.3 16.2 82 1.9 E 32 35 17 19 - - 0.0
28/08:40pm 19.4 16.2 16.3 82 1.9 ENE 28 33 15 18 - - 0.0
28/08:30pm 19.4 16.2 16.3 82 1.9 ENE 28 32 15 17 - - 0.0
28/08:20pm 19.4 16.9 16.2 82 2.0 E 24 32 13 17 - - 0.0
28/08:10pm 19.4 16.5 16.0 81 2.1 E 26 28 14 15 - - 0.0
28/08:00pm 19.4 16.9 16.1 81 2.0 E 24 28 13 15 - - 0.0
28/07:50pm 19.5 17.8 16.3 82 2.0 ENE 20 22 11 12 - - 0.0
28/07:40pm 19.8 18.2 16.4 81 2.1 ENE 20 24 11 13 - - 0.0
28/07:30pm 20.0 17.6 16.3 79 2.3 ENE 24 28 13 15 - - 0.0
28/07:20pm 20.1 18.0 16.2 78 2.4 ENE 22 24 12 13 - - 0.0
28/07:10pm 20.3 18.2 16.1 77 2.6 ENE 22 26 12 14 - - 0.0
28/07:00pm 20.4 18.6 15.9 75 2.8 ENE 20 24 11 13 - - 0.0
28/06:50pm 20.5 18.6 15.7 74 3.0 ENE 20 22 11 12 - - 0.0
28/06:40pm 20.7 19.1 15.9 74 3.0 ENE 19 24 10 13 - - 0.0
28/06:30pm 20.7 18.9 16.1 75 2.9 ENE 20 22 11 12 - - 0.0
28/06:20pm 20.9 19.7 16.1 74 3.0 ENE 17 19 9 10 - - 0.0
28/06:10pm 21.2 19.4 16.0 72 3.2 ENE 20 26 11 14 - - 0.0
28/06:00pm 21.5 19.7 15.9 70 3.5 ENE 20 26 11 14 - - 0.0
28/05:50pm 21.6 19.7 15.7 69 3.6 E 20 26 11 14 - - 0.0
28/05:40pm 21.7 19.0 15.5 68 3.8 E 24 28 13 15 - - 0.0
28/05:30pm 21.9 19.2 15.5 67 3.9 ENE 24 30 13 16 - - 0.0
28/05:20pm 22.1 19.3 15.4 65 4.1 ENE 24 28 13 15 - - 0.0
28/05:10pm 22.5 19.1 14.8 61 4.7 ENE 26 30 14 16 - - 0.0
28/05:00pm 23.0 19.0 14.0 57 5.4 E 28 32 15 17 - - 0.0
28/04:50pm 23.7 20.6 13.3 52 6.2 ENE 22 30 12 16 - - 0.0
28/04:40pm 24.3 21.2 13.5 51 6.5 ENE 22 30 12 16 - - 0.0
28/04:30pm 24.3 20.5 12.5 47 7.0 E 24 33 13 18 - - 0.0
28/04:20pm 23.7 19.2 11.5 46 7.1 E 26 30 14 16 - - 0.0
28/04:10pm 23.8 19.7 11.4 45 7.2 E 24 30 13 16 - - 0.0
28/04:00pm 24.3 20.4 12.1 46 7.2 ENE 24 28 13 15 - - 0.0
28/03:50pm 24.3 21.3 12.4 47 7.0 ENE 20 26 11 14 - - 0.0
28/03:40pm 23.5 19.3 13.4 53 6.1 E 28 30 15 16 - - 0.0
28/03:30pm 24.2 20.3 13.2 50 6.6 E 26 35 14 19 - - 0.0
28/03:20pm 24.6 21.4 14.2 52 6.3 E 24 32 13 17 - - 0.0
28/03:10pm 23.7 19.3 14.0 54 5.9 E 30 33 16 18 - - 0.0
28/03:00pm 24.1 19.8 14.5 55 5.9 E 30 35 16 19 - - 0.0
28/02:50pm 24.2 21.2 15.8 59 5.2 E 26 32 14 17 - - 0.0
28/02:40pm 24.2 20.9 14.9 56 5.7 E 26 32 14 17 - - 0.0
28/02:30pm 24.0 20.0 15.3 58 5.4 E 30 39 16 21 - - 0.0
28/02:20pm 24.8 22.5 15.7 57 5.7 E 22 28 12 15 - - 0.0
28/02:10pm 25.0 20.9 15.0 53 6.2 E 30 37 16 20 - - 0.0
28/02:00pm 25.1 21.0 14.9 53 6.3 E 30 35 16 19 - - 0.0
28/01:50pm 25.3 22.4 15.1 53 6.3 E 24 35 13 19 - - 0.0
28/01:40pm 24.4 20.8 14.3 53 6.2 E 26 33 14 18 - - 0.0
28/01:30pm 24.2 21.5 14.5 54 5.9 E 22 28 12 15 - - 0.0
28/01:20pm 24.2 20.0 14.6 55 5.9 E 30 37 16 20 - - 0.0
28/01:10pm 23.2 20.0 15.4 61 4.8 E 26 30 14 16 - - 0.0
28/01:00pm 22.6 20.0 16.0 66 4.1 E 24 28 13 15 - - 0.0
28/12:50pm 23.4 22.3 17.4 69 3.8 E 19 28 10 15 - - 0.0
28/12:40pm 22.3 19.9 16.3 69 3.8 E 24 32 13 17 - - 0.0
28/12:30pm 21.9 19.1 16.3 70 3.5 E 26 32 14 17 - - 0.0
28/12:20pm 22.1 21.4 17.3 74 3.0 ENE 17 22 9 12 - - 0.0
28/12:10pm 21.9 22.0 18.4 80 2.3 ENE 15 20 8 11 - - 0.0
28/12:00pm 22.4 22.8 18.2 77 2.7 E 13 17 7 9 - - 0.0
28/11:50am 21.3 20.6 18.7 85 1.7 E 20 22 11 12 - - 0.0
28/11:40am 20.1 19.3 18.0 88 1.3 E 19 22 10 12 - - 0.0
28/11:30am 19.7 18.4 18.2 91 1.0 E 22 28 12 15 - - 0.0
28/11:20am 19.9 18.1 17.9 88 1.3 E 24 30 13 16 - - 0.0
28/11:10am 20.0 18.8 18.4 90 1.0 E 22 26 12 14 - - 0.0
28/11:00am 19.8 20.1 18.8 94 0.6 E 15 20 8 11 - - 0.0
28/10:50am 19.4 18.6 18.4 94 0.6 E 20 24 11 13 - - 0.0
28/10:40am 19.7 18.8 18.2 91 1.0 E 20 24 11 13 - - 0.0
28/10:30am 20.1 19.3 17.9 87 1.4 ENE 19 28 10 15 - - 0.0
28/10:20am 19.3 18.3 18.0 92 0.8 NE 20 28 11 15 - - 0.0
28/10:10am 20.8 18.8 18.3 85 1.6 ENE 26 33 14 18 - - 0.0
28/10:00am 21.4 19.9 17.6 79 2.4 E 22 28 12 15 - - 0.0
28/09:50am 21.3 19.2 17.1 77 2.7 E 24 32 13 17 - - 0.0
28/09:40am 21.0 18.7 17.5 80 2.2 E 26 30 14 16 - - 0.0
28/09:30am 21.2 18.9 17.5 79 2.3 E 26 30 14 16 - - 0.0
28/09:20am 21.0 18.2 17.4 80 2.3 E 28 32 15 17 - - 0.0
28/09:10am 20.7 17.9 17.2 80 2.2 E 28 32 15 17 - - 0.0
28/09:00am 21.1 18.1 17.7 81 2.2 E 30 35 16 19 - - 0.0
28/08:50am 20.3 17.7 17.7 85 1.7 E 28 33 15 18 - - 0.0
28/08:40am 20.0 17.2 18.2 89 1.2 E 30 35 16 19 - - 0.0
28/08:30am 19.8 16.3 17.9 89 1.2 E 33 37 18 20 - - 0.0
28/08:20am 19.6 16.9 18.4 93 0.8 E 30 35 16 19 - - 0.0
28/08:10am 19.6 17.8 18.7 94 0.6 E 26 32 14 17 - - 0.0
28/08:00am 19.3 17.6 18.9 98 0.3 E 26 32 14 17 - - 0.0
28/07:50am 18.9 16.7 18.7 99 0.1 E 28 32 15 17 - - 0.0
28/07:40am 18.8 17.0 18.7 99 0.1 E 26 30 14 16 - - 0.0
28/07:30am 18.8 16.6 18.6 99 0.1 E 28 35 15 19 - - 0.0
28/07:20am 18.9 17.5 18.7 99 0.1 E 24 26 13 14 - - 0.0
28/07:10am 18.6 16.6 18.4 99 0.1 E 26 30 14 16 - - 0.0
28/07:00am 18.6 17.0 18.4 99 0.1 E 24 26 13 14 - - 0.0
28/06:50am 18.6 17.0 18.4 99 0.1 E 24 28 13 15 - - 0.0
28/06:40am 18.6 16.7 18.5 99 0.1 E 26 32 14 17 - - 0.0
28/06:30am 18.6 17.1 18.5 99 0.1 E 24 28 13 15 - - 0.0
28/06:20am 18.4 16.4 18.3 99 0.1 E 26 30 14 16 - - 0.0
28/06:10am 18.3 16.3 18.2 99 0.1 E 26 30 14 16 - - 0.0
28/06:00am 18.3 15.8 18.1 99 0.1 E 28 30 15 16 - - 0.0
28/05:50am 18.2 16.1 18.0 99 0.1 E 26 28 14 15 - - 0.0
28/05:40am 18.1 16.3 17.9 99 0.1 E 24 26 13 14 - - 0.0
28/05:30am 18.0 15.8 17.9 99 0.1 E 26 30 14 16 - - 0.0
28/05:20am 18.4 16.4 18.3 99 0.1 E 26 30 14 16 - - 0.0
28/05:10am 18.5 17.3 18.4 99 0.1 E 22 24 12 13 - - 0.0
28/05:00am 18.5 17.7 18.4 99 0.1 E 20 24 11 13 - - 0.0
28/04:50am 18.5 17.3 18.4 99 0.1 E 22 26 12 14 - - 0.0
28/04:40am 18.6 17.4 18.5 99 0.1 E 22 22 12 12 - - 0.0
28/04:30am 18.7 17.5 18.5 99 0.1 E 22 26 12 14 - - 0.0
28/04:20am 18.8 17.7 18.6 99 0.1 E 22 24 12 13 - - 0.0
28/04:10am 18.8 17.7 18.7 99 0.1 E 22 24 12 13 - - 0.0
28/04:00am 18.9 17.8 18.7 99 0.1 E 22 24 12 13 - - 0.0
28/03:50am 19.0 18.0 18.8 99 0.1 E 22 26 12 14 - - 0.0
28/03:40am 19.0 18.4 18.9 99 0.1 E 20 24 11 13 - - 0.0
28/03:30am 19.0 18.0 18.8 99 0.1 E 22 24 12 13 - - 0.0
28/03:20am 19.0 18.4 18.8 99 0.1 ENE 20 22 11 12 - - 0.0
28/03:10am 19.0 18.6 18.8 99 0.1 ENE 19 20 10 11 - - 0.0
28/03:00am 19.0 18.9 18.8 99 0.1 ENE 17 22 9 12 - - 0.0
28/02:50am 19.0 18.9 18.8 99 0.1 ENE 17 20 9 11 - - 0.0
28/02:40am 19.0 18.6 18.8 99 0.1 ENE 19 24 10 13 - - 0.0
28/02:30am 19.0 19.3 18.8 99 0.1 ENE 15 20 8 11 - - 0.0
28/02:20am 19.1 20.2 18.9 99 0.1 ENE 11 15 6 8 - - 0.0
28/02:10am 19.1 19.8 18.9 99 0.1 ENE 13 15 7 8 - - 0.0
28/02:00am 19.1 19.8 18.9 99 0.1 ENE 13 15 7 8 - - 0.0
28/01:50am 19.2 19.6 18.9 98 0.2 ENE 15 19 8 10 - - 0.0
28/01:40am 19.2 19.6 18.9 98 0.2 ENE 15 15 8 8 - - 0.0
28/01:30am 19.1 19.4 18.8 98 0.2 ENE 15 17 8 9 - - 0.0
28/01:20am 19.1 19.0 18.8 98 0.2 ENE 17 19 9 10 - - 0.0
28/01:10am 19.1 19.8 18.8 98 0.2 ENE 13 15 7 8 - - 0.0
28/01:00am 19.1 19.7 18.7 98 0.3 ENE 13 19 7 10 - - 0.0
28/12:50am 19.1 20.1 18.7 98 0.3 ENE 11 15 6 8 - - 0.0
28/12:40am 19.1 19.7 18.6 97 0.3 ENE 13 17 7 9 - - 0.0
28/12:30am 19.1 19.7 18.5 96 0.4 ENE 13 15 7 8 - - 0.0
28/12:20am 19.1 19.7 18.5 96 0.4 ENE 13 17 7 9 - - 0.0
28/12:10am 19.1 19.3 18.6 97 0.3 ENE 15 19 8 10 - - 0.0
28/12:00am 19.1 19.7 18.7 98 0.3 ENE 13 15 7 8 - - 0.0
 
Date/Time
EST
Temp
°C
App
Temp
°C
Dew
Point
°C
Rel
Hum
%
Delta-T
°C
Wind Press
QNH
hPa
Press
MSL
hPa
Rain since
9am
mm
Dir  Spd
km/h
Gust
km/h
Spd
kts
Gust
kts
27/11:50pm 19.1 19.4 18.8 98 0.2 ENE 15 17 8 9 - - 0.0
27/11:40pm 19.2 19.5 18.8 98 0.3 ENE 15 19 8 10 - - 0.0
27/11:30pm 19.2 19.5 18.8 98 0.3 ENE 15 17 8 9 - - 0.0
27/11:20pm 19.2 19.6 18.9 98 0.2 ENE 15 17 8 9 - - 0.0
27/11:10pm 19.3 18.9 18.9 98 0.3 ENE 19 20 10 11 - - 0.0
27/11:00pm 19.3 18.9 18.9 98 0.3 ENE 19 22 10 12 - - 0.0
27/10:50pm 19.4 19.4 18.9 97 0.3 ENE 17 19 9 10 - - 0.0
27/10:40pm 19.4 19.3 18.8 96 0.4 E 17 19 9 10 - - 0.0
27/10:30pm 19.4 19.8 18.9 97 0.3 ENE 15 17 8 9 - - 0.0
27/10:20pm 19.5 19.4 18.8 96 0.5 ENE 17 20 9 11 - - 0.0
27/10:10pm 19.6 19.5 18.8 95 0.5 ENE 17 22 9 12 - - 0.0
27/10:00pm 19.6 19.5 18.8 95 0.5 ENE 17 20 9 11 - - 0.0
27/09:50pm 19.8 19.2 18.9 94 0.6 ENE 20 22 11 12 - - 0.0
27/09:40pm 20.0 19.7 19.1 95 0.6 ENE 19 22 10 12 - - 0.0
27/09:30pm 20.2 20.0 19.3 95 0.6 ENE 19 20 10 11 - - 0.0
27/09:20pm 20.3 20.1 19.4 95 0.6 NE 19 20 10 11 - - 0.0
27/09:10pm 20.4 20.0 19.4 94 0.7 ENE 20 22 11 12 - - 0.0
27/09:00pm 20.6 20.4 19.4 93 0.8 ENE 19 20 10 11 - - 0.0
27/08:50pm 20.8 21.0 19.3 91 1.0 ENE 17 20 9 11 - - 0.0
27/08:40pm 21.0 21.1 19.2 89 1.2 NE 17 20 9 11 - - 0.0
27/08:30pm 21.2 20.9 19.2 88 1.3 NE 19 20 10 11 - - 0.0
27/08:20pm 21.4 21.5 19.1 87 1.5 NE 17 22 9 12 - - 0.0
27/08:10pm 21.5 22.0 19.2 87 1.5 NE 15 19 8 10 - - 0.0
27/08:00pm 21.7 21.8 19.1 85 1.7 NE 17 22 9 12 - - 0.0
27/07:50pm 21.9 22.0 19.1 84 1.8 ENE 17 19 9 10 - - 0.0
27/07:40pm 22.1 21.8 19.2 83 1.9 NE 19 20 10 11 - - 0.0
27/07:30pm 22.3 22.8 19.2 82 2.0 NE 15 19 8 10 - - 0.0
27/07:20pm 22.6 23.1 19.3 81 2.2 NE 15 19 8 10 - - 0.0
27/07:10pm 22.8 23.7 19.2 80 2.4 NE 13 19 7 10 - - 0.0
27/07:00pm 23.0 23.5 19.3 79 2.4 NE 15 19 8 10 - - 0.0
27/06:50pm 23.3 23.8 19.2 78 2.7 NE 15 20 8 11 - - 0.0
27/06:40pm 23.6 24.5 19.2 76 2.9 NE 13 17 7 9 - - 0.0
27/06:30pm 23.9 25.6 19.3 75 3.0 NE 9 15 5 8 - - 0.0
27/06:20pm 24.3 25.6 19.3 73 3.3 NE 11 15 6 8 - - 0.0
27/06:10pm 24.6 25.5 19.3 72 3.5 NE 13 17 7 9 - - 0.0
27/06:00pm 25.1 25.6 19.3 70 3.8 NE 15 19 8 10 - - 0.0
27/05:50pm 25.3 25.4 19.1 68 4.1 NE 17 22 9 12 - - 0.0
27/05:40pm 25.6 26.0 18.9 66 4.4 NE 15 20 8 11 - - 0.0
27/05:30pm 25.7 25.7 18.2 63 4.9 NE 15 19 8 10 - - 0.0
27/05:20pm 25.9 25.8 17.9 61 5.2 NE 15 19 8 10 - - 0.0
27/05:10pm 26.5 26.5 17.2 56 6.0 ENE 13 19 7 10 - - 0.0
27/05:00pm 27.0 26.8 16.8 53 6.5 NE 13 17 7 9 - - 0.0
27/04:50pm 27.1 26.9 16.7 53 6.7 NE 13 19 7 10 - - 0.0
27/04:40pm 27.6 27.1 16.8 51 6.9 NE 15 22 8 12 - - 0.0
27/04:30pm 27.8 26.9 15.9 48 7.5 E 15 20 8 11 - - 0.0
27/04:20pm 27.6 25.9 15.7 48 7.5 ENE 19 22 10 12 - - 0.0
27/04:10pm 27.7 26.2 15.2 46 7.8 ENE 17 22 9 12 - - 0.0
27/04:00pm 27.7 26.8 15.8 48 7.5 E 15 19 8 10 - - 0.0
27/03:50pm 27.5 26.7 16.0 49 7.3 E 15 19 8 10 - - 0.0
27/03:40pm 27.7 27.4 16.5 50 7.2 NE 13 17 7 9 - - 0.0
27/03:30pm 27.6 27.5 17.0 52 6.8 ENE 13 20 7 11 - - 0.0
27/03:20pm 27.6 27.6 16.2 49 7.2 E 11 15 6 8 - - 0.0
27/03:10pm 27.5 27.6 17.4 54 6.5 ENE 13 19 7 10 - - 0.0
27/03:00pm 27.7 27.5 16.8 51 7.0 ENE 13 22 7 12 - - 0.0
27/02:50pm 28.0 27.9 16.9 51 7.1 ENE 13 19 7 10 - - 0.0
27/02:40pm 27.7 27.3 17.2 52 6.8 NE 15 19 8 10 - - 0.0
27/02:30pm 27.9 27.7 16.8 50 7.1 ENE 13 15 7 8 - - 0.0
27/02:20pm 27.6 26.7 15.8 48 7.5 ENE 15 22 8 12 - - 0.0
27/02:10pm 27.6 28.5 18.4 57 6.0 E 11 15 6 8 - - 0.0
27/02:00pm 27.6 27.7 16.6 51 7.0 ENE 11 13 6 7 - - 0.0
27/01:50pm 27.5 28.1 16.8 52 6.9 ENE 9 19 5 10 - - 0.0
27/01:40pm 27.3 28.5 17.4 54 6.4 ENE 7 11 4 6 - - 0.0
27/01:30pm 26.9 27.0 17.4 56 6.1 E 13 17 7 9 - - 0.0
27/01:20pm 26.9 26.7 16.7 53 6.5 ENE 13 19 7 10 - - 0.0
27/01:10pm 26.7 26.4 17.4 56 6.0 E 15 20 8 11 - - 0.0
27/01:00pm 27.2 27.6 17.2 54 6.4 ENE 11 15 6 8 - - 0.0
27/12:50pm 27.2 28.3 17.9 56 6.1 ENE 9 19 5 10 - - 0.0
27/12:40pm 26.9 27.5 17.8 57 5.9 E 11 19 6 10 - - 0.0
27/12:30pm 26.8 26.8 17.3 56 6.1 ENE 13 17 7 9 - - 0.0
27/12:20pm 26.6 26.9 17.8 58 5.7 ENE 13 19 7 10 - - 0.0
27/12:10pm 26.7 27.6 18.3 60 5.5 NE 11 15 6 8 - - 0.0
27/12:00pm 26.3 26.6 17.8 59 5.5 NE 13 15 7 8 - - 0.0
27/11:50am 26.3 27.2 18.5 62 5.1 NE 11 15 6 8 - - 0.0
27/11:40am 26.3 26.6 17.8 59 5.5 ENE 13 19 7 10 - - 0.0
27/11:30am 26.4 27.7 18.4 61 5.2 ENE 9 13 5 7 - - 0.0
27/11:20am 26.2 27.7 18.9 64 4.8 ENE 9 13 5 7 - - 0.0
27/11:10am 25.6 26.1 18.4 64 4.7 ENE 13 17 7 9 - - 0.0
27/11:00am 25.5 25.6 17.5 61 5.2 N 13 19 7 10 - - 0.0
27/10:50am 26.2 27.2 17.8 60 5.4 NNE 9 11 5 6 - - 0.0
27/10:40am 25.8 26.2 17.2 59 5.5 NE 11 17 6 9 - - 0.0
27/10:30am 25.7 26.2 17.4 60 5.3 NE 11 17 6 9 - - 0.0
27/10:20am 25.9 27.0 18.0 61 5.1 NNE 9 15 5 8 - - 0.0
27/10:10am 25.5 26.8 17.5 61 5.2 NE 7 13 4 7 - - 0.0
27/10:00am 25.2 26.2 17.7 63 4.8 N 9 13 5 7 - - 0.0
27/09:50am 24.5 24.9 17.2 63 4.7 NNE 11 15 6 8 - - 0.0
27/09:40am 24.9 26.0 18.1 66 4.4 NNE 9 13 5 7 - - 0.0
27/09:30am 24.6 26.1 18.0 66 4.3 NNE 7 11 4 6 - - 0.0
27/09:20am 24.1 25.1 18.7 72 3.5 N 11 13 6 7 - - 0.0
27/09:10am 24.0 25.1 17.9 68 3.9 NNE 9 11 5 6 - - 0.0
27/09:00am 23.7 24.3 17.6 68 3.9 NNE 11 13 6 7 - - 0.0
27/08:50am 23.4 23.9 17.5 69 3.8 NNE 11 13 6 7 - - 0.0
27/08:40am 23.2 24.1 17.6 71 3.6 N 9 15 5 8 - - 0.0
27/08:30am 22.9 24.2 17.6 72 3.4 NNW 7 11 4 6 - - 0.0
27/08:20am 23.1 24.7 17.9 72 3.3 N 6 9 3 5 - - 0.0
27/08:10am 22.5 24.0 18.0 75 2.9 N 7 11 4 6 - - 0.0
27/08:00am 22.3 23.8 18.1 77 2.7 N 7 9 4 5 - - 0.0
27/07:50am 21.6 23.1 18.1 80 2.2 N 7 9 4 5 - - 0.0
27/07:40am 21.1 22.7 17.9 82 2.0 NNW 6 7 3 4 - - 0.0
27/07:30am 20.4 21.8 17.7 84 1.7 NNW 7 9 4 5 - - 0.0
27/07:20am 20.1 21.7 17.8 86 1.5 NNW 6 9 3 5 - - 0.0
27/07:10am 19.5 21.6 18.0 91 1.0 NNW 4 6 2 3 - - 0.0
27/07:00am 19.2 20.7 18.0 93 0.8 NNW 7 9 4 5 - - 0.0
27/06:50am 18.8 19.9 17.9 94 0.6 NNW 9 9 5 5 - - 0.0
27/06:40am 18.4 19.4 17.7 96 0.4 NNW 9 11 5 6 - - 0.0
27/06:30am 18.1 19.0 17.6 97 0.3 NNW 9 11 5 6 - - 0.0
27/06:20am 17.9 18.4 17.4 97 0.3 NNW 11 13 6 7 - - 0.0
27/06:10am 17.8 17.8 17.3 97 0.3 NNW 13 13 7 7 - - 0.0
27/06:00am 17.7 18.1 17.2 97 0.3 NNW 11 13 6 7 - - 0.0
27/05:50am 17.5 18.3 17.2 98 0.2 NNW 9 11 5 6 - - 0.0
27/05:40am 17.5 18.6 17.2 98 0.2 NNW 7 9 4 5 - - 0.0
27/05:30am 17.5 18.3 17.2 98 0.2 NW 9 9 5 5 - - 0.0
27/05:20am 17.4 18.2 17.2 99 0.1 NW 9 9 5 5 - - 0.0
27/05:10am 17.4 18.2 17.2 99 0.1 NW 9 11 5 6 - - 0.0
27/05:00am 17.4 17.8 17.2 99 0.1 NW 11 11 6 6 - - 0.0
27/04:50am 17.4 18.2 17.2 99 0.1 NW 9 11 5 6 - - 0.0
27/04:40am 17.4 17.8 17.2 99 0.1 NNW 11 13 6 7 - - 0.0
27/04:30am 17.4 17.7 17.1 98 0.2 NNW 11 13 6 7 - - 0.0
27/04:20am 17.4 17.4 17.1 98 0.2 NNW 13 15 7 8 - - 0.0
27/04:10am 17.5 17.2 17.3 99 0.1 N 15 15 8 8 - - 0.0
27/04:00am 17.6 17.3 17.3 98 0.2 N 15 17 8 9 - - 0.0
27/03:50am 17.6 17.3 17.3 98 0.2 N 15 19 8 10 - - 0.0
27/03:40am 17.5 17.1 17.2 98 0.2 N 15 19 8 10 - - 0.0
27/03:30am 17.5 17.1 17.2 98 0.2 N 15 17 8 9 - - 0.0
27/03:20am 17.5 17.1 17.2 98 0.2 N 15 17 8 9 - - 0.0
27/03:10am 17.5 17.1 17.1 97 0.2 N 15 17 8 9 - - 0.0
27/03:00am 17.5 17.5 17.1 97 0.2 NNW 13 13 7 7 - - 0.0
27/02:50am 17.5 17.5 17.1 97 0.2 NNW 13 13 7 7 - - 0.0
27/02:40am 17.6 17.6 17.1 97 0.3 N 13 15 7 8 - - 0.0
27/02:30am 17.6 17.9 17.1 97 0.3 N 11 15 6 8 - - 0.0
27/02:20am 17.6 17.6 17.2 97 0.2 N 13 17 7 9 - - 0.0
27/02:10am 17.6 17.6 17.3 98 0.2 N 13 17 7 9 - - 0.0
27/02:00am 17.5 17.5 17.3 99 0.1 N 13 15 7 8 - - 0.0
27/01:50am 17.5 17.5 17.3 99 0.1 N 13 15 7 8 - - 0.0
27/01:40am 17.5 17.5 17.3 99 0.1 N 13 15 7 8 - - 0.0
27/01:30am 17.7 18.2 17.5 99 0.1 N 11 13 6 7 - - 0.0
27/01:20am 17.8 18.4 17.6 99 0.1 N 11 11 6 6 - - 0.0
27/01:10am 17.8 18.0 17.6 99 0.1 N 13 13 7 7 - - 0.0
27/01:00am 17.8 18.3 17.5 98 0.2 N 11 13 6 7 - - 0.0
27/12:50am 17.8 18.7 17.5 98 0.2 NNW 9 9 5 5 - - 0.0
27/12:40am 17.8 18.7 17.6 99 0.1 NNW 9 9 5 5 - - 0.0
27/12:30am 17.9 18.8 17.6 98 0.2 N 9 9 5 5 - - 0.0
27/12:20am 18.0 19.4 17.8 99 0.1 NNE 7 9 4 5 - - 0.0
27/12:10am 18.2 19.8 17.9 98 0.2 NNE 6 6 3 3 - - 0.0
27/12:00am 18.2 19.8 17.9 98 0.2 NNE 6 9 3 5 - - 0.0
 
Date/Time
EST
Temp
°C
App
Temp
°C
Dew
Point
°C
Rel
Hum
%
Delta-T
°C
Wind Press
QNH
hPa
Press
MSL
hPa
Rain since
9am
mm
Dir  Spd
km/h
Gust
km/h
Spd
kts
Gust
kts
26/11:50pm 18.2 19.3 17.9 98 0.2 NE 9 15 5 8 - - 0.0
26/11:40pm 18.2 18.9 17.9 98 0.2 NE 11 13 6 7 - - 0.0
26/11:30pm 18.2 18.5 17.8 97 0.3 NE 13 17 7 9 - - 0.0
26/11:20pm 18.2 18.8 17.8 97 0.3 NE 11 15 6 8 - - 0.0
26/11:10pm 18.2 18.1 17.8 97 0.3 NE 15 19 8 10 - - 0.0
26/11:00pm 18.2 17.7 17.7 97 0.3 ENE 17 19 9 10 - - 0.0
26/10:50pm 18.3 18.2 17.8 97 0.3 NE 15 17 8 9 - - 0.0
26/10:40pm 18.3 18.5 17.7 96 0.4 NE 13 17 7 9 - - 0.0
26/10:30pm 18.3 19.2 17.5 95 0.5 NE 9 11 5 6 - - 0.0
26/10:20pm 18.4 18.5 17.4 94 0.6 ENE 13 15 7 8 - - 0.0
26/10:10pm 18.5 18.3 17.5 94 0.6 ENE 15 17 8 9 - - 0.0
26/10:00pm 18.7 18.1 17.5 93 0.8 ENE 17 20 9 11 - - 0.0
26/09:50pm 18.9 18.2 17.4 91 0.9 NE 17 19 9 10 - - 0.0
26/09:40pm 19.0 19.1 17.4 90 1.0 ENE 13 17 7 9 - - 0.0
26/09:30pm 19.3 19.0 17.4 89 1.2 ENE 15 20 8 11 - - 0.0
26/09:20pm 19.4 18.7 17.4 88 1.3 ENE 17 20 9 11 - - 0.0
26/09:10pm 19.6 19.0 17.5 88 1.3 ENE 17 20 9 11 - - 0.0
26/09:00pm 19.7 19.1 17.5 87 1.4 ENE 17 20 9 11 - - 0.0
26/08:50pm 19.9 19.3 17.5 86 1.5 ENE 17 19 9 10 - - 0.0
26/08:40pm 20.1 19.0 17.4 84 1.7 ENE 19 20 10 11 - - 0.0
26/08:30pm 20.3 19.1 17.5 84 1.8 ENE 20 22 11 12 - - 0.0
26/08:20pm 20.6 19.6 17.5 82 2.0 ENE 19 20 10 11 - - 0.0
26/08:10pm 20.8 20.1 17.4 81 2.2 NE 17 22 9 12 - - 0.0
26/08:00pm 21.0 20.6 17.2 79 2.4 NE 15 22 8 12 - - 0.0
26/07:50pm 21.3 21.6 17.0 76 2.7 NE 11 13 6 7 - - 0.0
26/07:40pm 21.6 21.1 16.8 74 3.0 NE 15 19 8 10 - - 0.0
26/07:30pm 21.9 20.8 16.4 71 3.4 NE 17 20 9 11 - - 0.0
26/07:20pm 22.2 21.5 15.5 66 4.1 NE 13 17 7 9 - - 0.0
26/07:10pm 22.7 21.4 14.8 61 4.8 NE 15 17 8 9 - - 0.0
26/07:00pm 22.9 22.5 14.0 57 5.4 NE 9 13 5 7 - - 0.0
26/06:50pm 23.1 23.1 14.1 57 5.4 NE 7 9 4 5 - - 0.0
26/06:40pm 23.5 22.8 14.2 56 5.6 NE 11 13 6 7 - - 0.0
26/06:30pm 23.8 23.0 14.1 54 5.9 ENE 11 11 6 6 - - 0.0
26/06:20pm 23.9 23.5 14.2 54 5.9 ENE 9 11 5 6 - - 0.0
26/06:10pm 24.3 23.6 14.3 53 6.1 ENE 11 13 6 7 - - 0.0
26/06:00pm 24.7 24.3 14.1 51 6.5 ENE 9 13 5 7 - - 0.0
26/05:50pm 24.7 24.3 14.1 51 6.5 ENE 9 13 5 7 - - 0.0
26/05:40pm 24.8 24.1 14.2 51 6.5 NE 11 13 6 7 - - 0.0
26/05:30pm 25.0 24.3 14.3 51 6.5 E 11 15 6 8 - - 0.0
26/05:20pm 25.3 23.8 14.2 50 6.8 ENE 15 19 8 10 - - 0.0
26/05:10pm 25.8 25.3 14.8 50 6.8 ENE 11 15 6 8 - - 0.0
26/05:00pm 25.8 25.1 14.4 49 7.0 ENE 11 13 6 7 - - 0.0
26/04:50pm 25.7 24.7 14.5 50 6.9 ENE 13 17 7 9 - - 0.0
26/04:40pm 25.9 24.9 14.6 49 7.0 ENE 13 17 7 9 - - 0.0
26/04:30pm 25.8 24.1 14.6 50 6.9 E 17 20 9 11 - - 0.0
26/04:20pm 25.9 25.0 15.8 53 6.3 E 15 17 8 9 - - 0.0
26/04:10pm 26.1 25.0 15.3 51 6.7 E 15 19 8 10 - - 0.0
26/04:00pm 26.3 25.8 15.0 49 7.0 ENE 11 17 6 9 - - 0.0
26/03:50pm 26.1 24.7 14.4 48 7.2 E 15 19 8 10 - - 0.0
26/03:40pm 26.2 25.1 14.3 48 7.3 ENE 13 17 7 9 - - 0.0
26/03:30pm 26.1 24.7 14.6 49 7.1 ENE 15 20 8 11 - - 0.0
26/03:20pm 26.5 26.1 15.1 49 7.1 ENE 11 15 6 8 - - 0.0
26/03:10pm 26.6 26.7 15.5 50 7.0 ENE 9 17 5 9 - - 0.0
26/03:00pm 26.3 26.3 15.1 50 7.0 ENE 9 15 5 8 - - 0.0
26/02:50pm 26.2 25.8 15.3 51 6.8 ENE 11 20 6 11 - - 0.0
26/02:40pm 26.3 26.9 15.4 51 6.8 NE 6 11 3 6 - - 0.0
26/02:30pm 25.8 24.5 14.7 50 6.9 ENE 15 17 8 9 - - 0.0
26/02:20pm 26.1 26.0 14.9 50 6.9 E 9 13 5 7 - - 0.0
26/02:10pm 25.9 26.0 14.5 49 7.0 ENE 7 15 4 8 - - 0.0
26/02:00pm 25.8 25.0 15.0 51 6.7 ENE 13 19 7 10 - - 0.0
26/01:50pm 26.0 26.3 15.0 50 6.8 ESE 7 11 4 6 - - 0.0
26/01:40pm 25.9 26.4 15.1 51 6.7 NE 6 13 3 7 - - 0.0
26/01:30pm 25.9 25.5 14.1 48 7.2 ENE 9 13 5 7 - - 0.0
26/01:20pm 25.7 26.1 14.7 50 6.8 NE 6 13 3 7 - - 0.0
26/01:10pm 25.2 24.6 14.6 51 6.5 NE 11 19 6 10 - - 0.0
26/01:00pm 24.8 23.9 13.6 49 6.8 ENE 11 19 6 10 - - 0.0
26/12:50pm 25.2 24.7 13.7 49 7.0 ENE 9 13 5 7 - - 0.0
26/12:40pm 25.1 24.5 13.6 49 7.0 ENE 9 15 5 8 - - 0.0
26/12:30pm 24.7 23.7 13.3 49 6.9 NE 11 17 6 9 - - 0.0
26/12:20pm 24.4 23.5 13.6 51 6.5 ENE 11 15 6 8 - - 0.0
26/12:10pm 24.3 22.7 12.9 49 6.8 E 13 17 7 9 - - 0.0
26/12:00pm 24.4 23.7 14.4 53 6.1 ENE 11 19 6 10 - - 0.0
26/11:50am 24.4 23.4 13.5 50 6.6 NE 11 15 6 8 - - 0.0
26/11:40am 23.8 22.1 13.5 52 6.2 ENE 15 19 8 10 - - 0.0
26/11:30am 23.7 22.6 14.3 55 5.7 ENE 13 19 7 10 - - 0.0
26/11:20am 24.1 23.7 14.1 53 6.1 NE 9 13 5 7 - - 0.0
26/11:10am 23.2 21.9 13.8 55 5.7 ENE 13 17 7 9 - - 0.0
26/11:00am 23.7 23.2 14.9 57 5.4 ENE 11 17 6 9 - - 0.0
26/10:50am 23.3 22.9 14.1 56 5.6 NE 9 17 5 9 - - 0.0
26/10:40am 22.6 21.9 14.4 60 5.0 ENE 11 15 6 8 - - 0.0
26/10:30am 23.1 22.2 13.8 55 5.6 NE 11 15 6 8 - - 0.0
26/10:20am 23.1 23.5 15.4 62 4.8 ENE 7 13 4 7 - - 0.0
26/10:10am 22.8 22.8 15.3 62 4.6 ENE 9 13 5 7 - - 0.0
26/10:00am 22.5 22.1 15.3 63 4.4 NE 11 15 6 8 - - 0.0
26/09:50am 22.2 20.6 12.8 55 5.5 ENE 13 17 7 9 - - 0.0
26/09:40am 21.9 20.6 14.7 63 4.4 ENE 15 20 8 11 - - 0.0
26/09:30am 22.1 21.0 14.3 61 4.7 ENE 13 17 7 9 - - 0.0
26/09:20am 22.2 22.1 16.1 68 3.8 NE 11 17 6 9 - - 0.0
26/09:10am 21.8 21.5 16.4 71 3.4 NE 13 17 7 9 - - 0.0
26/09:00am 22.1 22.8 17.0 73 3.2 NE 9 11 5 6 - - 0.8
26/08:50am 21.7 21.7 16.2 71 3.4 ENE 11 13 6 7 - - 0.8
26/08:40am 22.0 22.4 16.4 70 3.5 NE 9 11 5 6 - - 0.8
26/08:30am 21.7 22.0 16.0 70 3.5 N 9 13 5 7 - - 0.8
26/08:20am 21.3 21.9 15.7 70 3.5 N 7 9 4 5 - - 0.8
26/08:10am 20.9 20.9 15.2 70 3.5 N 9 11 5 6 - - 0.8
26/08:00am 20.9 21.6 15.7 72 3.2 N 6 7 3 4 - - 0.8
26/07:50am 20.2 21.2 16.4 79 2.4 NNW 6 7 3 4 - - 0.8
26/07:40am 20.4 21.8 16.4 78 2.5 NNW 4 6 2 3 - - 0.8
26/07:30am 20.4 22.0 16.8 80 2.3 N 4 6 2 3 - - 0.8
26/07:20am 19.7 21.3 16.9 84 1.8 NNW 4 6 2 3 - - 0.8
26/07:10am 19.4 21.0 16.9 85 1.6 N 4 6 2 3 - - 0.8
26/07:00am 18.7 20.2 16.6 87 1.3 N 4 6 2 3 - - 0.8
26/06:50am 18.2 19.0 16.4 89 1.1 NNW 7 9 4 5 - - 0.8
26/06:40am 18.2 19.2 16.3 89 1.2 NNW 6 7 3 4 - - 0.8
26/06:30am 18.0 18.9 16.1 89 1.2 NNW 6 7 3 4 - - 0.8
26/06:20am 17.8 18.7 16.2 90 1.0 NNW 6 7 3 4 - - 0.8
26/06:10am 17.5 18.4 16.1 91 0.9 NNW 6 7 3 4 - - 0.8
26/06:00am 17.3 18.1 16.3 94 0.6 N 7 7 4 4 - - 0.8
26/05:50am 17.0 17.7 16.2 95 0.5 NNE 7 7 4 4 - - 0.8
26/05:40am 16.6 17.4 15.9 96 0.4 NNE 6 7 3 4 - - 0.8
26/05:30am 16.3 16.9 15.7 96 0.4 NNE 7 9 4 5 - - 0.8
26/05:20am 16.4 16.6 15.7 96 0.4 NNE 9 9 5 5 - - 0.8
26/05:10am 16.5 16.3 15.6 94 0.5 N 11 13 6 7 - - 0.8
26/05:00am 16.6 16.7 15.6 94 0.6 N 9 11 5 6 - - 0.8
26/04:50am 16.4 16.1 15.5 94 0.5 N 11 13 6 7 - - 0.8
26/04:40am 16.7 16.4 15.5 93 0.7 N 11 13 6 7 - - 0.8
26/04:30am 16.7 16.0 15.3 91 0.8 N 13 13 7 7 - - 0.8
26/04:20am 16.6 16.3 15.4 93 0.7 N 11 13 6 7 - - 0.8
26/04:10am 16.7 16.7 15.3 91 0.8 N 9 11 5 6 - - 0.8
26/04:00am 17.0 16.1 14.8 87 1.3 N 13 15 7 8 - - 0.8
26/03:50am 16.8 16.3 15.0 89 1.1 N 11 17 6 9 - - 0.8
26/03:40am 17.1 15.8 14.7 86 1.4 N 15 17 8 9 - - 0.8
26/03:30am 17.0 16.1 14.8 87 1.3 N 13 17 7 9 - - 0.8
26/03:20am 17.1 16.2 14.9 87 1.3 N 13 15 7 8 - - 0.8
26/03:10am 17.0 16.1 14.8 87 1.3 N 13 15 7 8 - - 0.8
26/03:00am 17.1 16.6 14.9 87 1.3 N 11 13 6 7 - - 0.8
26/02:50am 17.0 16.5 14.9 87 1.3 N 11 13 6 7 - - 0.8
26/02:40am 17.0 16.5 14.9 87 1.3 N 11 15 6 8 - - 0.8
26/02:30am 17.2 16.4 15.0 87 1.3 N 13 17 7 9 - - 0.8
26/02:20am 17.2 16.0 15.0 87 1.3 N 15 17 8 9 - - 0.8
26/02:10am 17.1 16.0 15.2 88 1.1 N 15 19 8 10 - - 0.8
26/02:00am 17.1 15.6 15.2 88 1.1 N 17 19 9 10 - - 0.8
26/01:50am 16.9 15.8 15.2 90 1.0 N 15 17 8 9 - - 0.8
26/01:40am 16.8 15.7 15.2 90 1.0 N 15 15 8 8 - - 0.8
26/01:30am 16.9 15.4 15.3 90 1.0 NNW 17 17 9 9 - - 0.8
26/01:20am 16.8 15.7 15.4 91 0.8 NNW 15 17 8 9 - - 0.8
26/01:10am 16.8 16.6 15.7 93 0.7 NNW 11 13 6 7 - - 0.8
26/01:00am 16.9 16.4 15.9 94 0.6 NNW 13 17 7 9 - - 0.8
26/12:50am 17.0 15.7 15.9 93 0.7 NNW 17 17 9 9 - - 0.8
26/12:40am 16.9 16.1 16.0 94 0.5 NNW 15 17 8 9 - - 0.8
26/12:30am 17.0 16.5 16.0 94 0.6 N 13 15 7 8 - - 0.8
26/12:20am 17.1 16.3 16.1 94 0.6 N 15 15 8 8 - - 0.8
26/12:10am 17.1 16.6 16.0 93 0.7 N 13 15 7 8 - - 0.8
26/12:00am 17.1 16.2 15.9 93 0.7 N 15 17 8 9 - - 0.8
 
Date/Time
EST
Temp
°C
App
Temp
°C
Dew
Point
°C
Rel
Hum
%
Delta-T
°C
Wind Press
QNH
hPa
Press
MSL
hPa
Rain since
9am
mm
Dir  Spd
km/h
Gust
km/h
Spd
kts
Gust
kts
25/11:50pm 17.1 16.2 15.8 92 0.8 N 15 17 8 9 - - 0.8
25/11:40pm 17.0 16.4 15.7 92 0.8 NNE 13 13 7 7 - - 0.8
25/11:30pm 16.9 16.7 15.7 93 0.7 NNE 11 15 6 8 - - 0.8
25/11:20pm 16.9 17.1 15.7 93 0.7 NNE 9 11 5 6 - - 0.8
25/11:10pm 17.0 16.8 15.7 92 0.8 NNE 11 11 6 6 - - 0.8
25/11:00pm 17.0 16.8 15.7 92 0.8 NNE 11 13 6 7 - - 0.8

Other formats

Comma delimited format used in spreadsheet applications
http://www.bom.gov.au/fwo/IDQ60801/IDQ60801.99128.axf

JavaScript Object Notation format (JSON) in row-major order
http://www.bom.gov.au/fwo/IDQ60801/IDQ60801.99128.json

Data quality

Most of these data are generated automatically and are frequently updated. Quality checks on data are not normally performed. It is possible for incorrect values to appear. Refer to information at About Latest Weather Observations and please check the disclaimer before using these data.